Carlsbad, California
Current Conditions -  °F | °C
As of 7:52 AM on Saturday 20 Dec 2014 (Local Time) from KOKB Reporting Station
Clear Clear  
Wind Chill: 47°   Ceiling: Unl
Heat Index: 47°   Visibility: 8mi
Dew Point: 44°   Wind: 0mph
Humidity: 90%   Direction: NA
Pressure: 30.18"   Gusts: NA
Location:  33.17°N, 117.33°W
Report Text: KOKB 201552Z AUTO 00000KT 8SM CLR 08/07 A3018 RMK AO2 SLP221 T00830067
Loading
Personal Weather Stations






























Interactive Weather Map New forecast layout! Learn more

10-Day Weather Forecast

Advertisements
Track Severe Weather on mobile